Oxford, Indiana
Current Conditions -  °F | °C
As of 11:22 AM on Sunday 25 Jan 2015 (Local Time) from KLAF Reporting Station
Light Rain Light Rain  
Wind Chill: -3°   Ceiling: 3700
Heat Index:   Visibility: 2.5mi
Dew Point:   Wind: 8mph
Humidity: 96%   Direction: 70°ENE
Pressure: 29.68"   Gusts: NA
Location:  40.52°N, 87.25°W
Report Text: KLAF 251622Z 07007KT 2 1/2SM -RA BR FEW006 OVC037 01/01 A2968 RMK AO2 P0001 T00110006
Loading
Personal Weather Stations






























Interactive Weather Map New forecast layout! Learn more

10-Day Weather Forecast

Advertisements
Track Severe Weather on mobile